Time;durP1;ratioP1;P1;durP2;ratioP2;P2;SDS_P1;SDS_P2;PMS_P1;PMS_P2;Temp;Humidity;BMP_temperature;BMP_pressure;BME280_temperature;BME280_humidity;BME280_pressure;Samples;Min_cycle;Max_cycle;Signal;HPM_P1;HPM_P2
2024/02/11 00:00:35;;;;;;;;;;;;;;;8.81;77.89;95094.16;5052486;28;19924;-77
2024/02/11 00:03:27;;;;;;;;;;;;;;;8.74;78.02;95094.84;5052892;28;20527;-78
2024/02/11 00:06:15;;;;;;;;;;;;;;;8.58;78.58;95086.16;5041297;28;19929;-78
2024/02/11 00:09:05;;;;;;;;;;;;;;;8.61;78.58;95085.41;5031886;28;19971;-77
2024/02/11 00:11:54;;;;;;;;;;;;;;;8.60;78.67;95083.84;5032554;28;20277;-77
2024/02/11 00:14:42;;;;;;;;;;;;;;;8.74;78.30;95084.03;5041209;28;19924;-77
2024/02/11 00:17:30;;;;;;;;;;;;;;;8.80;77.92;95087.19;5039645;28;19931;-78
2024/02/11 00:20:18;;;;;;;;;;;;;;;8.67;78.46;95089.34;5051047;28;19959;-77
2024/02/11 00:23:06;;;;;;;;;;;;;;;8.59;78.64;95085.00;5056679;28;19925;-77
2024/02/11 00:25:56;;;;;;;;;;;;;;;8.49;78.70;95086.41;5062463;28;20283;-77
2024/02/11 00:28:44;;;;;;;;;;;;;;;8.47;78.55;95082.50;5034729;28;19925;-77
2024/02/11 00:31:32;;;;;;;;;;;;;;;8.51;78.40;95076.00;5054792;28;19925;-77
2024/02/11 00:34:20;;;;;;;;;;;;;;;8.54;77.33;95075.28;5039367;28;20405;-77
2024/02/11 00:37:11;;;;;;;;;;;;;;;8.42;76.76;95078.22;5049386;28;20327;-78
2024/02/11 00:39:59;;;;;;;;;;;;;;;7.98;77.81;95070.56;5039489;28;20042;-78
2024/02/11 00:42:51;;;;;;;;;;;;;;;7.98;77.89;95075.22;5051052;28;19931;-77
2024/02/11 00:45:40;;;;;;;;;;;;;;;7.95;78.33;95078.66;5055508;28;20519;-78
2024/02/11 00:48:28;;;;;;;;;;;;;;;7.98;78.18;95086.03;5044856;28;19924;-79
2024/02/11 00:51:19;;;;;;;;;;;;;;;8.10;77.81;95086.63;5053921;28;19993;-78
2024/02/11 00:54:07;;;;;;;;;;;;;;;8.02;77.76;95093.03;5038802;28;19925;-84
2024/02/11 00:56:55;;;;;;;;;;;;;;;8.14;77.20;95095.53;5035879;28;20368;-79
2024/02/11 00:59:45;;;;;;;;;;;;;;;8.21;76.85;95094.88;5041783;28;19924;-91
2024/02/11 01:02:34;;;;;;;;;;;;;;;8.00;77.12;95092.63;5035934;28;19925;-90
2024/02/11 01:05:23;;;;;;;;;;;;;;;7.98;77.66;95096.84;5038758;28;20003;-89
2024/02/11 01:08:11;;;;;;;;;;;;;;;7.97;77.60;95096.06;5052994;28;20502;-89
2024/02/11 01:10:59;;;;;;;;;;;;;;;8.00;77.09;95089.16;5043792;28;19931;-90
2024/02/11 01:13:47;;;;;;;;;;;;;;;8.01;77.32;95096.91;5046317;28;20392;-90
2024/02/11 01:16:37;;;;;;;;;;;;;;;8.04;76.95;95100.78;5057642;28;20015;-92
2024/02/11 01:19:25;;;;;;;;;;;;;;;7.92;77.06;95088.25;5043569;28;19932;-89
2024/02/11 01:22:14;;;;;;;;;;;;;;;7.83;77.14;95098.56;5047467;28;20368;-90
2024/02/11 01:25:02;;;;;;;;;;;;;;;7.79;76.96;95100.41;5035103;28;19925;-90
2024/02/11 01:27:50;;;;;;;;;;;;;;;7.74;77.62;95098.78;5056536;28;20015;-90
2024/02/11 01:30:38;;;;;;;;;;;;;;;7.87;77.49;95100.16;5032743;28;20013;-90
2024/02/11 01:33:28;;;;;;;;;;;;;;;7.76;77.76;95096.50;5058450;28;19924;-90
2024/02/11 01:36:16;;;;;;;;;;;;;;;7.78;77.69;95099.63;5036848;28;20368;-87
2024/02/11 01:39:05;;;;;;;;;;;;;;;7.77;78.35;95108.09;5032185;28;19924;-89
2024/02/11 01:41:53;;;;;;;;;;;;;;;7.76;78.24;95107.31;5037350;28;19929;-90
2024/02/11 01:44:41;;;;;;;;;;;;;;;7.84;77.99;95116.34;5038712;28;19929;-89
2024/02/11 01:47:30;;;;;;;;;;;;;;;7.87;77.71;95110.97;5053586;28;20061;-91
2024/02/11 01:50:20;;;;;;;;;;;;;;;7.87;77.32;95110.97;5048530;28;19975;-90
2024/02/11 01:53:09;;;;;;;;;;;;;;;7.80;77.32;95120.88;5039214;28;19935;-90
2024/02/11 01:55:57;;;;;;;;;;;;;;;7.70;77.97;95124.97;5046118;28;20335;-90
2024/02/11 01:58:46;;;;;;;;;;;;;;;7.78;77.66;95118.56;5046764;28;19936;-90
2024/02/11 02:01:34;;;;;;;;;;;;;;;7.70;78.31;95124.97;5045935;28;19925;-90
2024/02/11 02:04:24;;;;;;;;;;;;;;;7.72;78.33;95128.09;5038581;28;19932;-90
2024/02/11 02:07:14;;;;;;;;;;;;;;;7.80;78.24;95129.78;5036473;28;20011;-91
2024/02/11 02:10:03;;;;;;;;;;;;;;;7.99;77.82;95126.22;5029915;28;19936;-75
2024/02/11 02:12:51;;;;;;;;;;;;;;;8.07;77.43;95135.22;5045844;28;19933;-76
2024/02/11 02:15:40;;;;;;;;;;;;;;;7.96;77.65;95143.16;5035724;28;20768;-76
2024/02/11 02:18:34;;;;;;;;;;;;;;;7.86;78.05;95139.13;5049759;28;20086;-76
2024/02/11 02:21:24;;;;;;;;;;;;;;;7.89;77.88;95140.34;5053244;28;19925;-75
2024/02/11 02:24:16;;;;;;;;;;;;;;;7.96;78.19;95142.38;5049698;28;19939;-76
2024/02/11 02:27:06;;;;;;;;;;;;;;;7.99;78.12;95136.25;5044978;28;20016;-75
2024/02/11 02:29:54;;;;;;;;;;;;;;;8.05;77.98;95142.94;5042196;28;19984;-76
2024/02/11 02:32:44;;;;;;;;;;;;;;;8.06;78.00;95144.47;5034998;28;19932;-76
2024/02/11 02:35:33;;;;;;;;;;;;;;;7.97;78.22;95141.25;5037954;28;19925;-76
2024/02/11 02:38:21;;;;;;;;;;;;;;;8.10;77.97;95148.81;5040038;28;20087;-76
2024/02/11 02:41:11;;;;;;;;;;;;;;;8.11;78.03;95150.38;5039578;28;19925;-77
2024/02/11 02:43:59;;;;;;;;;;;;;;;8.04;78.10;95138.63;5043551;28;19929;-76
2024/02/11 02:46:48;;;;;;;;;;;;;;;8.17;77.88;95152.75;5052432;28;20686;-76
2024/02/11 02:49:39;;;;;;;;;;;;;;;8.19;77.80;95150.47;5049808;28;19939;-78
2024/02/11 02:52:28;;;;;;;;;;;;;;;8.17;77.87;95150.06;5041830;28;19932;-76
2024/02/11 02:55:17;;;;;;;;;;;;;;;8.24;77.97;95155.56;5048742;28;19925;-76
2024/02/11 02:58:13;;;;;;;;;;;;;;;8.25;77.81;95159.81;5045319;28;19925;-76
2024/02/11 03:01:04;;;;;;;;;;;;;;;8.16;77.60;95170.91;5053129;28;19935;-77
2024/02/11 03:03:53;;;;;;;;;;;;;;;8.18;78.23;95171.31;5052896;28;19931;-76
2024/02/11 03:06:42;;;;;;;;;;;;;;;8.28;77.91;95178.06;5035486;28;20423;-76
2024/02/11 03:09:30;;;;;;;;;;;;;;;8.28;77.51;95180.75;5047181;28;19925;-77
2024/02/11 03:12:18;;;;;;;;;;;;;;;8.26;77.42;95180.34;5024798;28;20015;-76
2024/02/11 03:15:10;;;;;;;;;;;;;;;8.17;78.04;95186.00;5037925;28;20011;-76
2024/02/11 03:17:58;;;;;;;;;;;;;;;8.26;77.74;95193.88;5033460;28;19947;-76
2024/02/11 03:20:47;;;;;;;;;;;;;;;8.28;77.85;95192.34;5040927;28;20011;-76
2024/02/11 03:23:37;;;;;;;;;;;;;;;8.38;77.97;95191.78;5036112;28;19925;-78
2024/02/11 03:26:25;;;;;;;;;;;;;;;8.41;78.03;95190.25;5048501;28;19925;-78
2024/02/11 03:29:14;;;;;;;;;;;;;;;8.48;78.33;95200.41;5049092;28;19924;-77
2024/02/11 03:32:05;;;;;;;;;;;;;;;8.52;78.62;95207.44;5052941;28;19933;-77
2024/02/11 03:34:53;;;;;;;;;;;;;;;8.55;79.00;95197.81;5035818;28;19929;-77
2024/02/11 03:37:41;;;;;;;;;;;;;;;8.58;79.18;95195.16;5031756;28;20364;-78
2024/02/11 03:40:29;;;;;;;;;;;;;;;8.66;79.30;95196.03;5053602;28;20030;-79
2024/02/11 03:43:19;;;;;;;;;;;;;;;8.71;79.40;95198.44;5036870;28;20054;-76
2024/02/11 03:46:08;;;;;;;;;;;;;;;8.73;79.51;95198.06;5046832;28;20442;-76
2024/02/11 03:48:58;;;;;;;;;;;;;;;8.77;79.63;95196.19;5049586;28;19925;-77
2024/02/11 03:51:48;;;;;;;;;;;;;;;8.81;79.78;95205.94;5048894;28;20296;-77
2024/02/11 03:54:38;;;;;;;;;;;;;;;8.77;80.29;95196.97;5045790;28;20245;-77
2024/02/11 03:57:28;;;;;;;;;;;;;;;8.79;80.42;95202.00;5032127;28;21188;-77
2024/02/11 04:00:19;;;;;;;;;;;;;;;8.76;80.72;95203.53;5027382;28;20008;-76
2024/02/11 04:03:08;;;;;;;;;;;;;;;8.84;80.71;95212.53;5051878;28;19924;-77
2024/02/11 04:05:57;;;;;;;;;;;;;;;8.90;80.52;95211.88;5037560;28;19925;-78
2024/02/11 04:08:45;;;;;;;;;;;;;;;8.78;81.14;95219.41;5055003;28;20002;-77
2024/02/11 04:11:33;;;;;;;;;;;;;;;8.80;81.38;95220.63;5048630;28;20416;-76
2024/02/11 04:14:25;;;;;;;;;;;;;;;8.86;81.26;95219.16;5051633;28;20388;-78
2024/02/11 04:17:14;;;;;;;;;;;;;;;8.87;81.47;95212.59;5029583;28;19937;-78
2024/02/11 04:20:08;;;;;;;;;;;;;;;8.87;81.83;95222.63;5049844;28;20316;-78
2024/02/11 04:22:58;;;;;;;;;;;;;;;8.94;81.28;95228.13;5055574;28;19930;-77
2024/02/11 04:25:47;;;;;;;;;;;;;;;8.97;81.33;95229.34;5050426;28;19929;-78
2024/02/11 04:28:36;;;;;;;;;;;;;;;8.90;81.56;95232.75;5058148;28;20522;-74
2024/02/11 04:31:25;;;;;;;;;;;;;;;8.87;81.79;95236.94;5035094;28;19968;-75
2024/02/11 04:34:13;;;;;;;;;;;;;;;8.98;81.56;95233.63;5048385;28;20419;-74
2024/02/11 04:37:06;;;;;;;;;;;;;;;8.93;81.33;95238.19;5044934;28;19929;-74
2024/02/11 04:39:56;;;;;;;;;;;;;;;8.96;81.39;95235.91;5053980;28;19926;-75
2024/02/11 04:42:44;;;;;;;;;;;;;;;8.97;81.14;95240.97;5036847;28;19933;-75
2024/02/11 04:45:33;;;;;;;;;;;;;;;9.01;81.01;95243.72;5048297;28;19933;-74
2024/02/11 04:48:21;;;;;;;;;;;;;;;9.00;81.29;95242.13;5038128;28;20011;-74
2024/02/11 04:51:09;;;;;;;;;;;;;;;8.95;81.48;95240.56;5050266;28;20421;-74
2024/02/11 04:53:58;;;;;;;;;;;;;;;8.98;81.53;95247.16;5052129;28;19928;-74
2024/02/11 04:56:47;;;;;;;;;;;;;;;8.98;81.29;95247.16;5043191;28;20003;-74
2024/02/11 04:59:35;;;;;;;;;;;;;;;8.99;81.57;95252.19;5053189;28;20296;-74
2024/02/11 05:02:25;;;;;;;;;;;;;;;8.96;81.48;95252.16;5049316;28;20376;-74
2024/02/11 05:05:13;;;;;;;;;;;;;;;8.95;81.98;95258.69;5049298;28;19925;-76
2024/02/11 05:08:03;;;;;;;;;;;;;;;8.91;82.42;95256.75;5050859;28;19937;-74
2024/02/11 05:10:52;;;;;;;;;;;;;;;9.06;82.43;95267.78;5052492;28;19953;-75
2024/02/11 05:13:44;;;;;;;;;;;;;;;9.18;81.83;95272.97;5052481;28;19990;-75
2024/02/11 05:16:34;;;;;;;;;;;;;;;9.11;82.30;95273.66;5052813;28;19930;-75
2024/02/11 05:19:22;;;;;;;;;;;;;;;9.18;82.57;95276.47;5041175;28;19925;-75
2024/02/11 05:22:10;;;;;;;;;;;;;;;9.31;81.77;95273.53;5031405;28;20403;-74
2024/02/11 05:24:59;;;;;;;;;;;;;;;9.38;81.78;95277.13;5053873;28;19936;-75
2024/02/11 05:27:53;;;;;;;;;;;;;;;9.44;81.51;95272.94;5030847;28;19970;-75
2024/02/11 05:30:43;;;;;;;;;;;;;;;9.45;81.32;95274.50;5049742;28;20383;-75
2024/02/11 05:33:35;;;;;;;;;;;;;;;9.44;81.58;95278.34;5049769;28;20019;-75
2024/02/11 05:36:24;;;;;;;;;;;;;;;9.42;81.68;95280.63;5052445;28;19933;-75
2024/02/11 05:39:13;;;;;;;;;;;;;;;9.47;81.85;95276.06;5051026;28;19931;-91
2024/02/11 05:42:07;;;;;;;;;;;;;;;9.44;82.10;95281.06;5039332;28;19924;-91
2024/02/11 05:44:55;;;;;;;;;;;;;;;9.60;81.42;95277.38;5035110;28;19932;-92
2024/02/11 05:47:45;;;;;;;;;;;;;;;9.62;81.26;95284.00;5045137;28;19929;-93
2024/02/11 05:50:35;;;;;;;;;;;;;;;9.71;81.65;95281.00;5051412;28;20418;-90
2024/02/11 05:53:23;;;;;;;;;;;;;;;9.69;82.13;95289.53;5064108;28;19924;-90
2024/02/11 05:56:12;;;;;;;;;;;;;;;9.66;82.34;95295.66;5059267;28;19929;-88
2024/02/11 05:59:00;;;;;;;;;;;;;;;9.71;82.73;95302.69;5063532;28;19928;-82
2024/02/11 06:01:49;;;;;;;;;;;;;;;9.76;82.15;95307.78;5045362;28;19924;-81
2024/02/11 06:04:38;;;;;;;;;;;;;;;9.57;82.99;95310.66;5051524;28;19931;-90
2024/02/11 06:07:27;;;;;;;;;;;;;;;9.68;82.86;95308.84;5047767;28;19956;-91
2024/02/11 06:10:16;;;;;;;;;;;;;;;9.70;82.99;95312.75;5051619;28;20437;-90
2024/02/11 06:13:08;;;;;;;;;;;;;;;9.69;82.97;95322.06;5045981;28;20020;-89
2024/02/11 06:15:58;;;;;;;;;;;;;;;9.80;82.66;95319.47;5031766;28;19932;-89
2024/02/11 06:18:46;;;;;;;;;;;;;;;9.82;82.50;95325.28;5048532;28;20344;-88
2024/02/11 06:21:36;;;;;;;;;;;;;;;9.86;82.12;95331.53;5049335;28;19925;-89
2024/02/11 06:24:24;;;;;;;;;;;;;;;9.78;83.05;95340.72;5053020;28;20003;-89
2024/02/11 06:27:12;;;;;;;;;;;;;;;9.86;81.26;95358.66;5049162;28;20412;-93
2024/02/11 06:30:01;;;;;;;;;;;;;;;9.85;79.44;95367.16;5049812;28;19933;-90
2024/02/11 06:32:50;;;;;;;;;;;;;;;9.79;77.64;95374.81;5037783;28;20014;-90
2024/02/11 06:35:40;;;;;;;;;;;;;;;9.79;76.94;95377.53;5050584;28;20022;-90
2024/02/11 06:38:29;;;;;;;;;;;;;;;9.61;76.77;95379.25;5037559;28;20348;-90
2024/02/11 06:41:20;;;;;;;;;;;;;;;9.55;76.60;95381.50;5044381;28;20019;-88
2024/02/11 06:44:08;;;;;;;;;;;;;;;9.62;76.52;95392.41;5049525;28;19924;-89
2024/02/11 06:46:58;;;;;;;;;;;;;;;9.59;76.42;95387.75;5050695;28;19925;-91
2024/02/11 06:49:46;;;;;;;;;;;;;;;9.39;76.92;95389.00;5036946;28;19929;-92
2024/02/11 06:52:35;;;;;;;;;;;;;;;9.70;76.80;95399.53;5047927;28;19936;-92
2024/02/11 06:55:25;;;;;;;;;;;;;;;9.71;76.61;95405.72;5037058;28;20043;-93
2024/02/11 06:58:15;;;;;;;;;;;;;;;9.75;75.94;95408.47;5049165;28;19940;-93
2024/02/11 07:01:04;;;;;;;;;;;;;;;9.70;76.76;95407.66;5051652;28;19954;-96
2024/02/11 07:03:52;;;;;;;;;;;;;;;9.67;75.28;95416.50;5040972;28;19929;-95
2024/02/11 07:06:45;;;;;;;;;;;;;;;9.65;74.97;95418.81;5047303;28;19932;-96
2024/02/11 07:09:33;;;;;;;;;;;;;;;9.56;74.83;95418.28;5041487;28;19946;-92
2024/02/11 07:12:23;;;;;;;;;;;;;;;9.48;74.75;95427.47;5052352;28;20394;-90
2024/02/11 07:15:13;;;;;;;;;;;;;;;9.55;74.17;95432.22;5044094;28;19944;-94
2024/02/11 07:18:03;;;;;;;;;;;;;;;9.48;74.20;95434.78;5053746;28;19950;-92
2024/02/11 07:20:52;;;;;;;;;;;;;;;9.40;74.24;95444.75;5049380;28;19978;-90
2024/02/11 07:23:40;;;;;;;;;;;;;;;9.39;73.81;95454.81;5050640;28;19932;-90
2024/02/11 07:26:28;;;;;;;;;;;;;;;9.38;73.86;95457.91;5040032;28;19925;-91
2024/02/11 07:29:18;;;;;;;;;;;;;;;9.33;73.66;95460.91;5046574;28;19975;-89
2024/02/11 07:32:06;;;;;;;;;;;;;;;9.11;74.25;95459.78;5036818;28;19928;-91
2024/02/11 07:34:56;;;;;;;;;;;;;;;9.14;74.53;95467.94;5047664;28;20403;-89
2024/02/11 07:37:44;;;;;;;;;;;;;;;9.24;73.42;95471.19;5054836;28;19948;-89
2024/02/11 07:40:32;;;;;;;;;;;;;;;9.13;73.80;95473.72;5044889;28;19925;-87
2024/02/11 07:43:25;;;;;;;;;;;;;;;9.04;74.02;95476.66;5072181;28;19925;-91
2024/02/11 07:46:15;;;;;;;;;;;;;;;9.14;73.26;95480.72;5031017;28;19940;-89
2024/02/11 07:49:03;;;;;;;;;;;;;;;9.10;73.68;95494.19;5055177;28;20576;-92
2024/02/11 07:51:54;;;;;;;;;;;;;;;9.01;73.96;95496.34;5049158;28;19929;-92
2024/02/11 07:54:44;;;;;;;;;;;;;;;9.01;73.39;95495.56;5039864;28;20007;-90
2024/02/11 07:57:32;;;;;;;;;;;;;;;8.93;73.75;95500.84;5052835;28;20399;-89
2024/02/11 08:00:20;;;;;;;;;;;;;;;8.93;73.49;95508.19;5026743;28;19954;-77
2024/02/11 08:03:10;;;;;;;;;;;;;;;8.91;73.33;95508.56;5036828;28;19936;-77
2024/02/11 08:05:58;;;;;;;;;;;;;;;8.90;74.11;95525.94;5032502;28;19928;-88
2024/02/11 08:08:48;;;;;;;;;;;;;;;8.88;74.04;95522.81;5051856;28;20431;-91
2024/02/11 08:11:36;;;;;;;;;;;;;;;8.75;74.12;95537.66;5049336;28;19975;-78
2024/02/11 08:14:26;;;;;;;;;;;;;;;8.75;74.38;95529.53;5035987;28;20003;-79
2024/02/11 08:17:14;;;;;;;;;;;;;;;8.81;74.35;95530.00;5027124;28;19928;-77
2024/02/11 08:20:04;;;;;;;;;;;;;;;8.71;74.70;95539.50;5035189;28;19924;-78
2024/02/11 08:22:54;;;;;;;;;;;;;;;8.54;75.47;95542.63;5041863;28;19925;-77
2024/02/11 08:25:43;;;;;;;;;;;;;;;8.33;75.31;95546.41;5037762;28;20019;-78
2024/02/11 08:28:32;;;;;;;;;;;;;;;8.53;75.40;95558.09;5034465;28;19979;-77
2024/02/11 08:31:20;;;;;;;;;;;;;;;8.54;75.62;95558.88;5046464;28;19936;-77
2024/02/11 08:34:08;;;;;;;;;;;;;;;8.54;74.90;95561.56;5050413;28;19924;-78
2024/02/11 08:36:58;;;;;;;;;;;;;;;8.55;74.74;95563.91;5033346;28;20026;-76
2024/02/11 08:39:47;;;;;;;;;;;;;;;8.44;75.37;95567.53;5035396;28;19964;-76
2024/02/11 08:42:35;;;;;;;;;;;;;;;8.59;74.61;95569.41;5037514;28;20023;-75
2024/02/11 08:45:24;;;;;;;;;;;;;;;8.63;74.58;95575.69;5027950;28;19995;-76
2024/02/11 08:48:12;;;;;;;;;;;;;;;8.55;74.11;95572.03;5049939;28;20469;-76
2024/02/11 08:51:01;;;;;;;;;;;;;;;8.45;75.13;95575.28;5035140;28;19932;-75
2024/02/11 08:53:51;;;;;;;;;;;;;;;8.59;74.73;95575.59;5062671;28;20387;-76
2024/02/11 08:56:40;;;;;;;;;;;;;;;8.53;74.73;95587.06;5040533;28;19924;-75
2024/02/11 08:59:30;;;;;;;;;;;;;;;8.35;75.22;95584.72;5042963;28;19929;-76
2024/02/11 09:02:18;;;;;;;;;;;;;;;8.43;75.26;95587.63;5034492;28;19963;-76
2024/02/11 09:05:07;;;;;;;;;;;;;;;8.49;74.56;95594.31;5045012;28;19929;-77
2024/02/11 09:07:55;;;;;;;;;;;;;;;8.45;75.18;95599.66;5047163;28;20372;-76
2024/02/11 09:10:44;;;;;;;;;;;;;;;8.46;75.22;95595.81;5036532;28;20016;-87
2024/02/11 09:13:33;;;;;;;;;;;;;;;8.56;75.37;95599.88;5070821;28;19939;-86
2024/02/11 09:16:26;;;;;;;;;;;;;;;8.48;75.58;95614.41;5034825;28;19979;-81
2024/02/11 09:19:14;;;;;;;;;;;;;;;8.62;75.54;95622.81;5052368;28;20265;-78
2024/02/11 09:22:05;;;;;;;;;;;;;;;8.66;75.12;95620.97;5035401;28;20347;-79
2024/02/11 09:24:54;;;;;;;;;;;;;;;8.58;75.35;95621.97;5044205;28;19925;-88
2024/02/11 09:27:44;;;;;;;;;;;;;;;8.69;75.09;95624.91;5043762;28;19931;-88
2024/02/11 09:30:35;;;;;;;;;;;;;;;8.72;74.70;95633.09;5030542;28;19929;-88
2024/02/11 09:33:27;;;;;;;;;;;;;;;8.65;74.64;95630.25;5038027;28;20427;-81
2024/02/11 09:36:15;;;;;;;;;;;;;;;8.72;74.79;95643.91;5032236;28;20415;-81
2024/02/11 09:39:03;;;;;;;;;;;;;;;8.62;75.09;95645.25;5043348;28;20071;-79
2024/02/11 09:41:51;;;;;;;;;;;;;;;8.66;73.99;95648.81;5045279;28;19972;-78
2024/02/11 09:44:43;;;;;;;;;;;;;;;8.63;74.92;95648.78;5035390;28;19971;-78
2024/02/11 09:47:32;;;;;;;;;;;;;;;8.64;74.49;95653.81;5034059;28;19932;-79
2024/02/11 09:50:21;;;;;;;;;;;;;;;8.61;74.17;95651.03;5031775;28;20396;-80
2024/02/11 09:53:11;;;;;;;;;;;;;;;8.62;74.31;95660.72;5034153;28;19924;-80
2024/02/11 09:55:59;;;;;;;;;;;;;;;8.67;74.07;95679.38;5035335;28;19925;-80
2024/02/11 09:58:47;;;;;;;;;;;;;;;8.68;73.60;95672.03;5046180;28;19960;-79
2024/02/11 10:01:38;;;;;;;;;;;;;;;8.65;74.71;95677.03;5033940;28;19924;-76
2024/02/11 10:04:27;;;;;;;;;;;;;;;8.74;73.37;95679.56;5042731;28;20372;-80
2024/02/11 10:07:20;;;;;;;;;;;;;;;8.77;74.03;95678.06;5043537;28;19979;-80
2024/02/11 10:10:09;;;;;;;;;;;;;;;8.83;73.24;95687.47;5035999;28;19975;-83
2024/02/11 10:12:58;;;;;;;;;;;;;;;8.87;73.70;95683.69;5044996;28;20400;-85
2024/02/11 10:15:47;;;;;;;;;;;;;;;8.85;74.06;95691.41;5034351;28;19925;-84
2024/02/11 10:18:37;;;;;;;;;;;;;;;8.81;73.15;95689.75;5025038;28;19932;-89
2024/02/11 10:21:25;;;;;;;;;;;;;;;8.69;73.35;95698.78;5031613;28;20400;-90
2024/02/11 10:24:17;;;;;;;;;;;;;;;8.73;73.71;95698.84;5035318;28;20347;-89
2024/02/11 10:27:07;;;;;;;;;;;;;;;8.84;73.32;95697.16;5028960;28;19933;-89
2024/02/11 10:29:56;;;;;;;;;;;;;;;8.79;73.04;95703.66;5039775;28;19925;-89
2024/02/11 10:32:44;;;;;;;;;;;;;;;8.66;74.09;95704.88;5035841;28;19936;-89
2024/02/11 10:35:34;;;;;;;;;;;;;;;8.69;74.87;95700.72;5049551;28;20015;-89
2024/02/11 10:38:22;;;;;;;;;;;;;;;8.80;73.36;95702.50;5036101;28;20354;-90
2024/02/11 10:41:12;;;;;;;;;;;;;;;8.72;73.49;95698.06;5037651;28;20471;-90
2024/02/11 10:44:00;;;;;;;;;;;;;;;8.63;73.71;95703.69;5044698;28;19925;-89
2024/02/11 10:46:52;;;;;;;;;;;;;;;8.65;74.39;95709.53;5051030;28;19925;-89
2024/02/11 10:49:40;;;;;;;;;;;;;;;8.75;74.17;95712.81;5037672;28;20011;-90
2024/02/11 10:52:31;;;;;;;;;;;;;;;8.61;74.16;95710.56;5043761;28;19928;-90
2024/02/11 10:55:20;;;;;;;;;;;;;;;8.72;74.15;95713.53;5037029;28;19933;-89
2024/02/11 10:58:09;;;;;;;;;;;;;;;8.64;74.87;95713.38;5031247;28;20358;-94
2024/02/11 11:00:58;;;;;;;;;;;;;;;8.76;74.76;95712.47;5049102;28;20284;-94
2024/02/11 11:03:46;;;;;;;;;;;;;;;8.79;74.92;95714.47;5050102;28;19926;-84
2024/02/11 11:06:35;;;;;;;;;;;;;;;8.75;74.53;95724.44;5053592;28;19960;-81
2024/02/11 11:09:24;;;;;;;;;;;;;;;8.71;75.25;95725.50;5042220;28;19932;-80
2024/02/11 11:12:15;;;;;;;;;;;;;;;8.88;75.39;95717.75;5050904;28;20388;-91
2024/02/11 11:15:08;;;;;;;;;;;;;;;8.88;75.36;95725.09;5034273;28;19931;-92
2024/02/11 11:17:59;;;;;;;;;;;;;;;8.96;73.83;95724.13;5057870;28;19932;-91
2024/02/11 11:20:52;;;;;;;;;;;;;;;8.90;74.38;95726.31;5054462;28;19968;-88
2024/02/11 11:23:42;;;;;;;;;;;;;;;8.81;75.07;95727.66;5051667;28;19925;-91
2024/02/11 11:26:31;;;;;;;;;;;;;;;8.76;75.21;95727.94;5053371;28;20011;-90
2024/02/11 11:29:20;;;;;;;;;;;;;;;8.86;74.49;95725.47;5056076;28;19932;-90
2024/02/11 11:32:11;;;;;;;;;;;;;;;8.86;74.60;95724.69;5029625;28;19929;-93
2024/02/11 11:34:59;;;;;;;;;;;;;;;8.86;74.35;95720.03;5063542;28;19928;-93
2024/02/11 11:37:47;;;;;;;;;;;;;;;8.93;74.41;95731.03;5049759;28;19932;-86
2024/02/11 11:40:36;;;;;;;;;;;;;;;8.91;74.48;95722.47;5036388;28;19929;-92
2024/02/11 11:43:28;;;;;;;;;;;;;;;8.91;74.94;95725.19;5043839;28;19924;-94
2024/02/11 11:46:17;;;;;;;;;;;;;;;8.81;74.77;95728.44;5055589;28;20269;-91
2024/02/11 11:49:07;;;;;;;;;;;;;;;8.87;75.23;95727.03;5042692;28;20019;-94
2024/02/11 11:51:57;;;;;;;;;;;;;;;8.89;74.84;95732.06;5049133;28;19951;-93
2024/02/11 11:54:45;;;;;;;;;;;;;;;8.91;74.61;95732.53;5028143;28;20020;-89
2024/02/11 11:57:33;;;;;;;;;;;;;;;8.86;75.03;95733.59;5037853;28;19925;-88
2024/02/11 12:00:23;;;;;;;;;;;;;;;8.85;75.59;95734.72;5049416;28;19931;-89
2024/02/11 12:03:11;;;;;;;;;;;;;;;8.84;75.99;95735.88;5051517;28;19936;-87
2024/02/11 12:06:00;;;;;;;;;;;;;;;8.85;75.31;95740.13;5053402;28;20398;-88
2024/02/11 12:08:48;;;;;;;;;;;;;;;8.81;74.66;95733.84;5053289;28;19999;-88
2024/02/11 12:11:37;;;;;;;;;;;;;;;8.72;75.06;95735.19;5036804;28;20023;-89
2024/02/11 12:14:25;;;;;;;;;;;;;;;8.87;74.77;95743.28;5040471;28;19932;-87
2024/02/11 12:17:15;;;;;;;;;;;;;;;8.90;75.06;95739.09;5052314;28;19940;-89
2024/02/11 12:20:04;;;;;;;;;;;;;;;8.96;74.99;95739.59;5051008;28;19971;-87
2024/02/11 12:22:55;;;;;;;;;;;;;;;9.00;75.24;95746.66;5052216;28;20365;-88
2024/02/11 12:25:43;;;;;;;;;;;;;;;9.03;75.06;95745.16;5056379;28;19925;-85
2024/02/11 12:28:32;;;;;;;;;;;;;;;9.02;75.21;95744.38;5063163;28;19989;-87
2024/02/11 12:31:23;;;;;;;;;;;;;;;9.04;75.51;95749.44;5070469;28;19956;-89
2024/02/11 12:34:13;;;;;;;;;;;;;;;9.02;75.11;95751.72;5064828;28;19970;-81
2024/02/11 12:37:03;;;;;;;;;;;;;;;9.03;74.63;95745.94;5061287;28;19931;-80
2024/02/11 12:39:54;;;;;;;;;;;;;;;9.04;74.28;95757.56;5034861;28;19929;-89
2024/02/11 12:42:44;;;;;;;;;;;;;;;8.98;73.82;95748.13;5052343;28;19924;-89
2024/02/11 12:45:32;;;;;;;;;;;;;;;8.97;73.76;95760.13;5041632;28;19935;-90
2024/02/11 12:48:21;;;;;;;;;;;;;;;8.76;75.06;95758.50;5053277;28;20009;-90
2024/02/11 12:51:13;;;;;;;;;;;;;;;8.92;75.00;95763.88;5052613;28;19932;-89
2024/02/11 12:54:01;;;;;;;;;;;;;;;9.01;74.03;95759.06;5051787;28;20011;-89
2024/02/11 12:56:50;;;;;;;;;;;;;;;9.00;74.12;95762.91;5052177;28;19932;-90
2024/02/11 12:59:38;;;;;;;;;;;;;;;9.02;74.38;95759.84;5053232;28;19932;-88
2024/02/11 13:02:27;;;;;;;;;;;;;;;8.91;74.88;95768.50;5033951;28;19925;-90
2024/02/11 13:05:15;;;;;;;;;;;;;;;8.96;74.27;95766.69;5053888;28;19932;-89
2024/02/11 13:08:09;;;;;;;;;;;;;;;9.00;73.62;95760.22;5052307;28;19931;-88
2024/02/11 13:10:57;;;;;;;;;;;;;;;9.05;74.24;95772.66;5038783;28;20372;-89
2024/02/11 13:13:45;;;;;;;;;;;;;;;9.03;73.92;95769.53;5054165;28;19932;-89
2024/02/11 13:16:33;;;;;;;;;;;;;;;8.97;74.42;95768.25;5037776;28;19932;-90
2024/02/11 13:19:24;;;;;;;;;;;;;;;9.03;74.13;95767.59;5048941;28;19925;-89
2024/02/11 13:22:14;;;;;;;;;;;;;;;8.95;73.97;95775.91;5042413;28;20023;-89
2024/02/11 13:25:06;;;;;;;;;;;;;;;8.96;74.00;95772.09;5041380;28;19932;-90
2024/02/11 13:27:54;;;;;;;;;;;;;;;9.01;74.16;95778.03;5034923;28;19925;-89
2024/02/11 13:30:43;;;;;;;;;;;;;;;8.89;74.57;95778.91;5049681;28;20022;-90
2024/02/11 13:33:32;;;;;;;;;;;;;;;8.95;74.49;95784.84;5033473;28;19986;-89
2024/02/11 13:36:20;;;;;;;;;;;;;;;8.97;74.20;95777.16;5053178;28;19940;-90
2024/02/11 13:39:08;;;;;;;;;;;;;;;9.14;73.68;95782.16;5031248;28;19940;-89
2024/02/11 13:41:58;;;;;;;;;;;;;;;9.10;73.95;95786.72;5030675;28;19936;-87
2024/02/11 13:44:47;;;;;;;;;;;;;;;9.17;73.04;95786.09;5049487;28;19932;-89
2024/02/11 13:47:36;;;;;;;;;;;;;;;9.26;73.24;95788.59;5051192;28;19931;-89
2024/02/11 13:50:25;;;;;;;;;;;;;;;9.23;72.33;95786.63;5048705;28;19924;-75
2024/02/11 13:53:13;;;;;;;;;;;;;;;9.15;73.48;95791.84;5036919;28;19933;-77
2024/02/11 13:56:01;;;;;;;;;;;;;;;9.22;72.67;95787.75;5053936;28;19925;-74
2024/02/11 13:58:50;;;;;;;;;;;;;;;9.16;73.08;95796.16;5041753;28;19932;-76
2024/02/11 14:01:38;;;;;;;;;;;;;;;9.26;73.01;95800.22;5038481;28;19947;-75
2024/02/11 14:04:28;;;;;;;;;;;;;;;9.24;72.38;95802.50;5048367;28;19928;-75
2024/02/11 14:07:17;;;;;;;;;;;;;;;9.29;72.22;95796.03;5048877;28;19931;-76
2024/02/11 14:10:06;;;;;;;;;;;;;;;9.25;72.52;95795.16;5042981;28;19928;-77
2024/02/11 14:12:54;;;;;;;;;;;;;;;9.28;72.04;95803.38;5038769;28;19976;-75
2024/02/11 14:15:44;;;;;;;;;;;;;;;9.18;72.33;95814.75;5040342;28;19992;-76
2024/02/11 14:18:33;;;;;;;;;;;;;;;9.31;71.57;95808.06;5051047;28;19952;-77
2024/02/11 14:21:21;;;;;;;;;;;;;;;9.31;71.11;95812.72;5050109;28;20342;-77
2024/02/11 14:24:09;;;;;;;;;;;;;;;9.28;71.60;95808.81;5043977;28;20372;-74
2024/02/11 14:27:00;;;;;;;;;;;;;;;9.30;71.56;95808.44;5049234;28;19933;-75
2024/02/11 14:29:48;;;;;;;;;;;;;;;9.42;71.26;95811.81;5027666;28;19955;-75
2024/02/11 14:32:37;;;;;;;;;;;;;;;9.44;70.41;95814.97;5035854;28;19925;-74
2024/02/11 14:35:26;;;;;;;;;;;;;;;9.43;70.52;95816.09;5039587;28;20384;-75
2024/02/11 14:38:14;;;;;;;;;;;;;;;9.36;71.31;95821.34;5048192;28;19933;-74
2024/02/11 14:41:03;;;;;;;;;;;;;;;9.49;71.09;95818.53;5037318;28;19924;-75
2024/02/11 14:43:54;;;;;;;;;;;;;;;9.50;71.03;95823.59;5049097;28;19929;-76
2024/02/11 14:46:42;;;;;;;;;;;;;;;9.43;71.32;95823.44;5046556;28;19924;-74
2024/02/11 14:49:33;;;;;;;;;;;;;;;9.34;72.02;95826.34;5033971;28;20461;-75
2024/02/11 14:52:21;;;;;;;;;;;;;;;9.31;71.54;95824.34;5047158;28;20395;-76